Time;durP1;ratioP1;P1;durP2;ratioP2;P2;SDS_P1;SDS_P2;PMS_P1;PMS_P2;Temp;Humidity;BMP_temperature;BMP_pressure;BME280_temperature;BME280_humidity;BME280_pressure;Samples;Min_cycle;Max_cycle;Signal;HPM_P1;HPM_P2
2022/04/28 00:00:55;;;;;;;3.47;1.15;;;4.40;99.90;;;;;;5069306;28;20125;-65
2022/04/28 00:03:20;;;;;;;2.53;1.27;;;4.40;99.90;;;;;;5069055;28;20107;-64
2022/04/28 00:05:46;;;;;;;8.25;2.00;;;4.30;99.90;;;;;;5069718;28;20036;-64
2022/04/28 00:08:13;;;;;;;2.08;1.58;;;4.20;99.90;;;;;;5071952;28;20063;-64
2022/04/28 00:10:39;;;;;;;3.13;1.40;;;4.20;99.90;;;;;;5071701;28;20040;-64
2022/04/28 00:13:07;;;;;;;3.17;1.75;;;4.20;99.90;;;;;;5071654;28;20509;-65
2022/04/28 00:15:33;;;;;;;5.15;2.00;;;4.20;99.90;;;;;;5072030;28;20036;-64
2022/04/28 00:17:59;;;;;;;3.33;1.98;;;4.20;99.90;;;;;;5071937;28;20027;-64
2022/04/28 00:20:25;;;;;;;4.57;1.77;;;4.20;99.90;;;;;;5071941;28;20036;-65
2022/04/28 00:22:51;;;;;;;3.28;1.35;;;4.20;99.90;;;;;;5070625;28;20021;-64
2022/04/28 00:25:16;;;;;;;3.28;1.42;;;4.10;99.90;;;;;;5068349;28;20120;-65
2022/04/28 00:27:42;;;;;;;3.88;1.90;;;4.20;99.90;;;;;;5068401;28;20025;-64
2022/04/28 00:30:08;;;;;;;7.78;1.67;;;4.20;99.90;;;;;;5068553;28;20035;-64
2022/04/28 00:32:35;;;;;;;3.33;1.63;;;4.20;99.90;;;;;;5069433;28;20029;-64
2022/04/28 00:35:00;;;;;;;3.22;1.50;;;4.10;99.90;;;;;;5071499;28;20035;-64
2022/04/28 00:37:26;;;;;;;1.90;1.52;;;4.00;99.90;;;;;;5071123;28;20041;-64
2022/04/28 00:39:53;;;;;;;3.08;1.38;;;4.00;99.90;;;;;;5071552;28;20085;-64
2022/04/28 00:42:19;;;;;;;2.78;1.48;;;4.00;99.90;;;;;;5071137;28;20104;-63
2022/04/28 00:44:46;;;;;;;3.50;2.28;;;3.90;99.90;;;;;;5071235;28;20039;-63
2022/04/28 00:47:12;;;;;;;3.88;1.60;;;3.80;99.90;;;;;;5071240;28;20032;-64
2022/04/28 00:52:24;;;;;;;1.52;1.40;;;3.80;99.90;;;;;;5067762;28;20027;-64
2022/04/28 00:54:54;;;;;;;4.22;1.42;;;3.80;99.90;;;;;;5067649;28;20028;-64
2022/04/28 00:57:21;;;;;;;3.10;1.93;;;3.70;99.90;;;;;;5067738;28;20033;-64
2022/04/28 00:59:48;;;;;;;2.40;1.30;;;3.70;99.90;;;;;;5067863;28;20032;-64
2022/04/28 01:02:17;;;;;;;1.85;1.13;;;3.60;99.90;;;;;;5067703;28;20394;-64
2022/04/28 01:04:43;;;;;;;1.70;0.73;;;3.50;99.90;;;;;;5061228;28;20120;-64
2022/04/28 01:07:08;;;;;;;3.28;1.55;;;3.50;99.90;;;;;;5048849;28;20104;-64
2022/04/28 01:09:36;;;;;;;3.80;1.67;;;3.40;99.90;;;;;;5050792;28;20041;-64
2022/04/28 01:12:17;;;;;;;3.35;1.40;;;3.40;99.90;;;;;;5050369;28;20525;-64
2022/04/28 01:14:44;;;;;;;4.13;1.27;;;3.40;99.90;;;;;;5047805;28;20049;-63
2022/04/28 01:17:10;;;;;;;2.30;1.15;;;3.40;99.90;;;;;;5048012;28;20033;-64
2022/04/28 01:19:36;;;;;;;5.07;1.48;;;3.40;99.90;;;;;;5064619;28;20393;-64
2022/04/28 01:22:03;;;;;;;2.85;1.73;;;3.50;99.90;;;;;;5070521;28;20025;-63
2022/04/28 01:24:30;;;;;;;5.18;1.70;;;3.50;99.90;;;;;;5069956;28;20025;-63
2022/04/28 01:26:58;;;;;;;3.33;1.73;;;3.40;99.90;;;;;;5070530;28;20093;-63
2022/04/28 01:29:23;;;;;;;5.28;1.65;;;3.40;99.90;;;;;;5070482;28;20047;-64
2022/04/28 01:31:49;;;;;;;5.57;1.92;;;3.30;99.90;;;;;;5070924;28;20016;-63
2022/04/28 01:34:14;;;;;;;6.30;2.13;;;3.30;99.90;;;;;;5070301;28;20492;-63
2022/04/28 01:36:40;;;;;;;1.80;1.48;;;3.30;99.90;;;;;;5070055;28;20109;-64
2022/04/28 01:39:07;;;;;;;3.72;1.55;;;3.30;99.90;;;;;;5070447;28;20028;-63
2022/04/28 01:41:33;;;;;;;3.30;1.55;;;3.30;99.90;;;;;;5070132;28;20107;-63
2022/04/28 01:43:59;;;;;;;4.75;2.00;;;3.30;99.90;;;;;;5070106;28;20429;-63
2022/04/28 01:46:25;;;;;;;7.03;1.60;;;3.30;99.90;;;;;;5069546;28;20044;-63
2022/04/28 01:48:51;;;;;;;4.32;1.67;;;3.30;99.90;;;;;;5067811;28;20024;-64
2022/04/28 01:56:45;;;;;;;5.22;1.98;;;3.40;99.90;;;;;;5066916;28;20035;-64
2022/04/28 01:59:10;;;;;;;2.00;1.17;;;3.40;99.90;;;;;;5066915;28;20028;-64
2022/04/28 02:01:36;;;;;;;3.22;1.92;;;3.40;99.90;;;;;;5066831;28;20036;-64
2022/04/28 02:04:02;;;;;;;5.55;1.50;;;3.40;99.90;;;;;;5067623;28;20127;-64
2022/04/28 02:06:27;;;;;;;3.05;1.73;;;3.40;99.90;;;;;;5070086;28;20033;-64
2022/04/28 02:08:53;;;;;;;4.43;1.85;;;3.40;99.90;;;;;;5070075;28;20079;-64
2022/04/28 02:11:18;;;;;;;1.85;1.52;;;3.40;99.90;;;;;;5069979;28;20078;-64
2022/04/28 02:13:44;;;;;;;3.45;1.63;;;3.40;99.90;;;;;;5070035;28;20489;-64
2022/04/28 02:16:10;;;;;;;2.90;1.80;;;3.30;99.90;;;;;;5069821;28;20032;-64
2022/04/28 02:18:36;;;;;;;3.85;1.63;;;3.30;99.90;;;;;;5069834;28;20017;-64
2022/04/28 02:21:02;;;;;;;2.15;1.15;;;3.30;99.90;;;;;;5069687;28;20032;-64
2022/04/28 02:23:27;;;;;;;2.78;1.58;;;3.30;99.90;;;;;;5069752;28;20052;-64
2022/04/28 02:25:53;;;;;;;2.67;1.70;;;3.20;99.90;;;;;;5069346;28;20033;-65
2022/04/28 02:28:19;;;;;;;3.53;1.65;;;3.20;99.90;;;;;;5069801;28;20025;-64
2022/04/28 02:30:44;;;;;;;3.47;1.42;;;3.10;99.90;;;;;;5069638;28;20040;-64
2022/04/28 02:33:10;;;;;;;3.97;2.17;;;3.00;99.90;;;;;;5066293;28;20024;-64
2022/04/28 02:35:37;;;;;;;3.03;1.30;;;3.00;99.90;;;;;;5066411;28;20037;-64
2022/04/28 02:38:03;;;;;;;2.10;1.20;;;3.00;99.90;;;;;;5069123;28;20067;-64
2022/04/28 02:40:30;;;;;;;1.70;1.30;;;2.90;99.90;;;;;;5070765;28;20036;-64
2022/04/28 02:42:55;;;;;;;2.33;1.55;;;2.90;99.90;;;;;;5073197;28;20025;-64
2022/04/28 02:45:21;;;;;;;1.88;1.45;;;2.90;99.90;;;;;;5073518;28;20032;-64
2022/04/28 02:47:46;;;;;;;1.35;0.90;;;2.90;99.90;;;;;;5073599;28;20496;-64
2022/04/28 02:50:12;;;;;;;5.50;1.70;;;2.90;99.90;;;;;;5073749;28;20039;-64
2022/04/28 02:52:39;;;;;;;4.65;1.88;;;2.90;99.90;;;;;;5071933;28;20043;-63
2022/04/28 02:55:05;;;;;;;5.45;1.75;;;2.90;99.90;;;;;;5073372;28;20804;-64
2022/04/28 02:57:31;;;;;;;6.28;1.65;;;2.90;99.90;;;;;;5073002;28;20478;-64
2022/04/28 02:59:57;;;;;;;2.17;1.08;;;2.90;99.90;;;;;;5055460;28;20032;-64
2022/04/28 03:02:24;;;;;;;5.07;2.20;;;2.80;99.90;;;;;;5053313;28;20029;-64
2022/04/28 03:04:50;;;;;;;2.03;1.60;;;2.80;99.90;;;;;;5053114;28;20029;-64
2022/04/28 03:12:44;;;;;;;2.42;1.52;;;2.70;99.90;;;;;;5058583;28;20086;-63
2022/04/28 03:15:11;;;;;;;3.15;1.85;;;2.70;99.90;;;;;;5072926;28;20397;-64
2022/04/28 03:17:37;;;;;;;2.67;2.10;;;2.70;99.90;;;;;;5073087;28;20645;-64
2022/04/28 03:20:04;;;;;;;5.55;1.30;;;2.70;99.90;;;;;;5072897;28;20025;-63
2022/04/28 03:22:30;;;;;;;2.65;1.30;;;2.70;99.90;;;;;;5073048;28;20036;-64
2022/04/28 03:24:56;;;;;;;7.35;2.17;;;2.70;99.90;;;;;;5072942;28;20717;-64
2022/04/28 03:27:21;;;;;;;5.50;1.95;;;2.60;99.90;;;;;;5072880;28;20024;-64
2022/04/28 03:29:47;;;;;;;1.83;1.33;;;2.60;99.90;;;;;;5072684;28;20395;-64
2022/04/28 03:32:12;;;;;;;2.47;1.80;;;2.50;99.90;;;;;;5072656;28;20481;-64
2022/04/28 03:34:38;;;;;;;4.85;1.77;;;2.50;99.90;;;;;;5071327;28;20024;-64
2022/04/28 03:37:04;;;;;;;4.15;1.75;;;2.60;99.90;;;;;;5072331;28;20051;-64
2022/04/28 03:39:30;;;;;;;5.90;1.67;;;2.50;99.90;;;;;;5072647;28;20041;-64
2022/04/28 03:41:55;;;;;;;3.65;1.70;;;2.50;99.90;;;;;;5072389;28;20020;-64
2022/04/28 03:44:21;;;;;;;3.47;1.25;;;2.50;99.90;;;;;;5072477;28;20027;-64
2022/04/28 03:46:47;;;;;;;6.88;1.73;;;2.50;99.90;;;;;;5072391;28;20043;-63
2022/04/28 03:49:13;;;;;;;10.65;2.35;;;2.50;99.90;;;;;;5071746;28;20037;-63
2022/04/28 03:51:39;;;;;;;3.20;1.55;;;2.60;99.90;;;;;;5072217;28;20446;-64
2022/04/28 03:54:05;;;;;;;5.63;1.73;;;2.60;99.90;;;;;;5072263;28;20426;-64
2022/04/28 03:56:32;;;;;;;3.97;1.48;;;2.60;99.90;;;;;;5072483;28;20035;-64
2022/04/28 03:59:02;;;;;;;2.67;1.63;;;2.60;99.90;;;;;;5072289;28;20021;-64
2022/04/28 04:01:29;;;;;;;2.08;0.82;;;2.60;99.90;;;;;;5072090;28;20039;-63
2022/04/28 04:03:55;;;;;;;1.80;1.23;;;2.60;99.90;;;;;;5072108;28;20412;-64
2022/04/28 04:06:21;;;;;;;2.15;1.30;;;2.60;99.90;;;;;;5071932;28;20040;-64
2022/04/28 04:08:48;;;;;;;2.22;1.20;;;2.60;99.90;;;;;;5071966;28;20052;-64
2022/04/28 04:11:13;;;;;;;2.65;1.60;;;2.50;99.90;;;;;;5071686;28;20465;-63
2022/04/28 04:13:39;;;;;;;2.75;1.55;;;2.50;99.90;;;;;;5071967;28;20533;-63
2022/04/28 04:16:05;;;;;;;2.92;1.20;;;2.50;99.90;;;;;;5070897;28;20078;-64
2022/04/28 04:18:31;;;;;;;3.65;1.58;;;2.50;99.90;;;;;;5068626;28;20102;-64
2022/04/28 04:20:57;;;;;;;1.15;1.05;;;2.50;99.90;;;;;;5069548;28;20056;-64
2022/04/28 04:23:23;;;;;;;1.77;1.13;;;2.50;99.90;;;;;;5071670;28;20029;-64
2022/04/28 04:25:49;;;;;;;3.63;1.75;;;2.50;99.90;;;;;;5071448;28;20120;-65
2022/04/28 04:28:14;;;;;;;3.40;1.45;;;2.50;99.90;;;;;;5071656;28;20055;-64
2022/04/28 04:33:24;;;;;;;2.90;1.55;;;2.50;99.90;;;;;;5068407;28;20098;-64
2022/04/28 04:35:50;;;;;;;2.45;1.67;;;2.50;99.90;;;;;;5068897;28;20465;-64
2022/04/28 04:38:15;;;;;;;4.53;1.58;;;2.50;99.90;;;;;;5069777;28;20092;-64
2022/04/28 04:40:41;;;;;;;3.47;2.05;;;2.60;99.90;;;;;;5071519;28;20025;-64
2022/04/28 04:43:13;;;;;;;7.47;1.90;;;2.60;99.90;;;;;;5071544;28;20471;-64
2022/04/28 04:45:42;;;;;;;2.53;1.65;;;2.60;99.90;;;;;;5071276;28;20366;-64
2022/04/28 04:48:10;;;;;;;3.45;1.15;;;2.60;99.90;;;;;;5071526;28;20020;-64
2022/04/28 04:50:36;;;;;;;1.58;1.48;;;2.70;99.90;;;;;;5071227;28;20040;-64
2022/04/28 04:53:01;;;;;;;3.80;2.20;;;2.70;99.90;;;;;;5071172;28;20021;-64
2022/04/28 04:55:27;;;;;;;7.25;2.03;;;2.70;99.90;;;;;;5071178;28;20037;-64
2022/04/28 04:57:53;;;;;;;2.30;1.08;;;2.80;99.90;;;;;;5070843;28;20029;-64
2022/04/28 05:00:19;;;;;;;1.05;0.93;;;2.80;99.90;;;;;;5069606;28;20020;-64
2022/04/28 05:02:44;;;;;;;4.72;1.75;;;2.90;99.90;;;;;;5066464;28;20197;-63
2022/04/28 05:05:10;;;;;;;2.00;1.30;;;2.90;99.90;;;;;;5058798;28;20036;-64
2022/04/28 05:07:35;;;;;;;2.45;1.63;;;3.00;99.90;;;;;;5068720;28;20098;-63
2022/04/28 05:10:01;;;;;;;4.28;2.15;;;3.10;99.90;;;;;;5070751;28;20129;-64
2022/04/28 05:12:27;;;;;;;2.28;1.40;;;3.10;99.90;;;;;;5070244;28;20024;-64
2022/04/28 05:14:52;;;;;;;2.33;1.65;;;3.20;99.90;;;;;;5070889;28;20029;-64
2022/04/28 05:17:18;;;;;;;3.67;2.08;;;3.20;99.90;;;;;;5070681;28;20027;-63
2022/04/28 05:19:44;;;;;;;6.03;1.58;;;3.30;99.90;;;;;;5070476;28;20099;-63
2022/04/28 05:22:09;;;;;;;2.78;1.73;;;3.40;99.90;;;;;;5070607;28;20124;-64
2022/04/28 05:24:35;;;;;;;2.70;1.27;;;3.50;99.90;;;;;;5067755;28;20043;-63
2022/04/28 05:27:01;;;;;;;4.43;1.77;;;3.60;99.90;;;;;;5067122;28;20142;-63
2022/04/28 05:29:27;;;;;;;5.18;2.03;;;3.70;99.90;;;;;;5067250;28;20036;-63
2022/04/28 05:31:52;;;;;;;1.48;1.25;;;3.90;99.90;;;;;;5067690;28;20130;-64
2022/04/28 05:34:18;;;;;;;4.75;2.03;;;4.10;99.90;;;;;;5067376;28;20024;-64
2022/04/28 05:36:45;;;;;;;4.30;1.80;;;4.30;99.90;;;;;;5066797;28;20047;-63
2022/04/28 05:39:11;;;;;;;5.97;2.53;;;4.40;99.90;;;;;;5067368;28;20059;-63
2022/04/28 05:41:37;;;;;;;3.50;2.30;;;4.60;99.90;;;;;;5067005;28;20040;-63
2022/04/28 05:46:50;;;;;;;2.35;1.15;;;4.90;99.90;;;;;;5070136;28;20591;-63
2022/04/28 05:49:16;;;;;;;6.18;1.90;;;5.10;99.90;;;;;;5066698;28;20432;-63
2022/04/28 05:51:41;;;;;;;2.67;1.58;;;5.30;99.90;;;;;;5067040;28;20503;-63
2022/04/28 05:54:07;;;;;;;3.58;1.40;;;5.40;99.90;;;;;;5067648;28;20290;-63
2022/04/28 05:56:32;;;;;;;3.90;1.85;;;5.70;99.90;;;;;;5067886;28;20025;-64
2022/04/28 05:58:58;;;;;;;3.53;2.20;;;5.90;99.90;;;;;;5066869;28;20468;-64
2022/04/28 06:01:24;;;;;;;3.85;1.95;;;6.20;99.90;;;;;;5067598;28;20112;-64
2022/04/28 06:03:49;;;;;;;2.75;1.48;;;6.40;99.90;;;;;;5069890;28;20031;-63
2022/04/28 06:06:15;;;;;;;4.68;1.67;;;6.60;99.90;;;;;;5069834;28;20034;-64
2022/04/28 06:08:40;;;;;;;3.17;1.92;;;6.80;99.90;;;;;;5069627;28;20076;-64
2022/04/28 06:11:06;;;;;;;2.40;1.20;;;6.80;99.90;;;;;;5066895;28;20037;-64
2022/04/28 06:13:32;;;;;;;8.05;2.38;;;7.00;99.90;;;;;;5066868;28;20396;-64
2022/04/28 06:15:58;;;;;;;2.13;1.63;;;7.20;99.90;;;;;;5066933;28;20037;-64
2022/04/28 06:18:24;;;;;;;2.17;1.60;;;7.30;99.90;;;;;;5066552;28;20040;-64
2022/04/28 06:20:50;;;;;;;3.72;1.83;;;7.40;99.90;;;;;;5069018;28;20055;-64
2022/04/28 06:23:15;;;;;;;2.50;1.50;;;7.40;99.90;;;;;;5068153;28;20454;-64
2022/04/28 06:25:41;;;;;;;3.95;1.60;;;7.40;99.90;;;;;;5066705;28;20028;-64
2022/04/28 06:28:09;;;;;;;3.97;1.90;;;7.50;99.90;;;;;;5066382;28;20028;-64
2022/04/28 06:30:36;;;;;;;3.35;1.45;;;7.70;99.90;;;;;;5066449;28;20064;-64
2022/04/28 06:33:01;;;;;;;3.08;1.42;;;7.90;99.90;;;;;;5069374;28;20032;-64
2022/04/28 06:35:27;;;;;;;2.53;1.63;;;8.10;99.90;;;;;;5069485;28;20029;-64
2022/04/28 06:37:53;;;;;;;1.92;1.48;;;8.30;99.90;;;;;;5069085;28;20513;-65
2022/04/28 06:40:19;;;;;;;5.47;2.15;;;8.40;99.90;;;;;;5069362;28;20389;-64
2022/04/28 06:42:49;;;;;;;2.90;1.55;;;8.50;99.90;;;;;;5068957;28;20107;-64
2022/04/28 06:45:15;;;;;;;3.57;2.00;;;8.70;99.90;;;;;;5069430;28;20089;-64
2022/04/28 06:47:40;;;;;;;3.85;2.08;;;8.70;99.90;;;;;;5068965;28;20024;-64
2022/04/28 06:50:06;;;;;;;2.08;1.52;;;8.70;99.90;;;;;;5069252;28;20052;-64
2022/04/28 06:52:38;;;;;;;3.97;1.90;;;8.80;99.90;;;;;;5069658;28;20397;-64
2022/04/28 06:55:04;;;;;;;3.63;1.75;;;8.90;99.90;;;;;;5069131;28;20500;-64
2022/04/28 06:57:30;;;;;;;6.85;1.67;;;9.00;99.90;;;;;;5066918;28;20021;-64
2022/04/28 06:59:56;;;;;;;6.55;2.17;;;9.20;99.90;;;;;;5065771;28;20029;-64
2022/04/28 07:02:22;;;;;;;5.82;2.25;;;9.40;99.90;;;;;;5065381;28;20329;-64
2022/04/28 07:04:48;;;;;;;4.10;1.80;;;9.50;99.90;;;;;;5062332;28;20032;-63
2022/04/28 07:07:14;;;;;;;5.65;2.20;;;9.70;99.90;;;;;;5060795;28;20021;-65
2022/04/28 07:09:41;;;;;;;3.25;1.83;;;9.70;99.90;;;;;;5067689;28;20040;-63
2022/04/28 07:12:07;;;;;;;3.17;1.67;;;9.90;99.90;;;;;;5068197;28;20043;-64
2022/04/28 07:14:35;;;;;;;3.63;2.08;;;10.00;99.90;;;;;;5069144;28;20471;-64
2022/04/28 07:17:01;;;;;;;6.07;2.38;;;10.10;99.90;;;;;;5069161;28;20029;-64
2022/04/28 07:19:27;;;;;;;4.68;1.60;;;10.30;99.90;;;;;;5068923;28;20449;-65
2022/04/28 07:21:52;;;;;;;4.63;1.70;;;10.40;99.90;;;;;;5069029;28;20070;-65
2022/04/28 07:24:18;;;;;;;8.88;2.22;;;10.50;99.90;;;;;;5071909;28;20161;-64
2022/04/28 07:26:44;;;;;;;4.13;2.03;;;10.40;99.90;;;;;;5072352;28;20031;-66
2022/04/28 07:29:09;;;;;;;2.70;1.58;;;10.60;99.90;;;;;;5072499;28;20112;-65
2022/04/28 07:31:36;;;;;;;2.50;1.92;;;10.80;99.90;;;;;;5072799;28;20024;-66
2022/04/28 07:34:02;;;;;;;7.57;2.25;;;11.00;99.90;;;;;;5070607;28;20035;-65
2022/04/28 07:36:28;;;;;;;2.53;1.52;;;11.20;99.90;;;;;;5059707;28;20025;-65
2022/04/28 07:38:54;;;;;;;5.93;3.05;;;11.30;99.90;;;;;;5066565;28;20016;-62
2022/04/28 07:41:20;;;;;;;3.22;2.25;;;11.50;99.90;;;;;;5065195;28;20078;-63
2022/04/28 07:43:46;;;;;;;4.57;2.45;;;11.50;99.90;;;;;;5065622;28;20503;-63
2022/04/28 07:46:11;;;;;;;3.50;2.15;;;11.80;99.90;;;;;;5060478;28;20025;-63
2022/04/28 07:48:37;;;;;;;2.75;1.80;;;11.80;99.90;;;;;;5069064;28;20056;-65
2022/04/28 07:51:03;;;;;;;4.43;2.05;;;11.80;99.90;;;;;;5072127;28;20093;-66
2022/04/28 07:53:31;;;;;;;3.40;2.50;;;11.80;99.90;;;;;;5071781;28;20578;-65
2022/04/28 07:56:17;;;;;;;3.20;1.73;;;11.70;99.90;;;;;;5071665;28;20040;-63
2022/04/28 07:58:43;;;;;;;4.13;2.05;;;11.90;99.90;;;;;;5072103;28;20028;-65
2022/04/28 08:01:10;;;;;;;2.13;1.40;;;12.00;99.90;;;;;;5071731;28;20516;-65
2022/04/28 08:03:37;;;;;;;1.88;1.55;;;12.10;99.90;;;;;;5071993;28;20033;-66
2022/04/28 08:06:03;;;;;;;5.60;2.05;;;12.20;99.90;;;;;;5071848;28;20488;-66
2022/04/28 08:08:28;;;;;;;2.47;1.90;;;12.20;99.90;;;;;;5071934;28;20027;-65
2022/04/28 08:10:54;;;;;;;2.40;1.85;;;12.30;99.90;;;;;;5071626;28;20366;-65
2022/04/28 08:13:20;;;;;;;2.50;1.88;;;12.30;98.90;;;;;;5071807;28;20016;-65
2022/04/28 08:15:45;;;;;;;2.85;1.85;;;12.40;98.10;;;;;;5071856;28;20095;-65
2022/04/28 08:18:11;;;;;;;6.20;1.90;;;12.30;98.60;;;;;;5068655;28;20490;-67
2022/04/28 08:20:40;;;;;;;4.82;1.88;;;12.30;99.10;;;;;;5068963;28;20039;-67
2022/04/28 08:23:05;;;;;;;2.63;1.75;;;12.40;98.10;;;;;;5070333;28;20170;-65
2022/04/28 08:25:31;;;;;;;6.10;2.05;;;12.50;98.40;;;;;;5068265;28;20448;-65
2022/04/28 08:27:57;;;;;;;1.77;1.67;;;12.50;98.10;;;;;;5068862;28;20027;-65
2022/04/28 08:30:22;;;;;;;3.33;1.58;;;12.70;97.10;;;;;;5071278;28;20070;-64
2022/04/28 08:32:48;;;;;;;3.53;1.92;;;12.80;96.50;;;;;;5071754;28;20078;-65
2022/04/28 08:35:14;;;;;;;2.42;1.63;;;12.90;96.20;;;;;;5071172;28;20036;-65
2022/04/28 08:37:40;;;;;;;3.25;2.33;;;13.10;96.90;;;;;;5071257;28;20421;-64
2022/04/28 08:40:07;;;;;;;4.75;2.10;;;13.30;95.60;;;;;;5071371;28;20043;-64
2022/04/28 08:42:36;;;;;;;3.67;2.00;;;13.20;95.90;;;;;;5070961;28;20025;-64
2022/04/28 08:45:04;;;;;;;4.40;2.05;;;13.10;96.70;;;;;;5069467;28;20093;-65
2022/04/28 08:47:30;;;;;;;5.38;2.05;;;13.20;96.70;;;;;;5057839;28;20079;-64
2022/04/28 08:49:56;;;;;;;6.43;2.25;;;13.30;95.80;;;;;;5057005;28;20078;-65
2022/04/28 08:52:23;;;;;;;3.00;1.98;;;13.40;95.50;;;;;;5071045;28;20028;-65
2022/04/28 08:54:52;;;;;;;4.63;2.28;;;13.80;94.50;;;;;;5070998;28;20025;-65
2022/04/28 08:57:18;;;;;;;3.20;1.85;;;13.80;93.70;;;;;;5069051;28;20112;-65
2022/04/28 08:59:44;;;;;;;3.47;1.65;;;13.80;94.10;;;;;;5067684;28;20107;-67
2022/04/28 09:02:13;;;;;;;7.15;2.42;;;13.70;93.60;;;;;;5068391;28;20071;-68
2022/04/28 09:04:39;;;;;;;7.38;2.30;;;13.70;94.00;;;;;;5064179;28;20025;-66
2022/04/28 09:07:08;;;;;;;5.55;2.30;;;13.60;94.90;;;;;;5050942;28;20025;-66
2022/04/28 09:09:33;;;;;;;3.55;2.20;;;13.60;94.60;;;;;;5051180;28;20082;-66
2022/04/28 09:12:04;;;;;;;3.08;1.98;;;13.70;93.50;;;;;;5050643;28;20067;-67
2022/04/28 09:14:30;;;;;;;5.65;2.40;;;13.90;93.70;;;;;;5050892;28;20477;-67
2022/04/28 09:17:00;;;;;;;5.18;2.45;;;14.10;92.70;;;;;;5050809;28;20218;-66
2022/04/28 09:19:33;;;;;;;5.27;2.73;;;14.20;92.30;;;;;;5050560;28;20041;-67
2022/04/28 09:22:06;;;;;;;3.95;2.22;;;14.50;92.80;;;;;;5050477;28;20033;-67
2022/04/28 09:24:32;;;;;;;3.65;1.98;;;14.70;92.40;;;;;;5048366;28;20025;-67
2022/04/28 09:26:58;;;;;;;4.75;1.95;;;14.80;91.10;;;;;;5067279;28;20123;-67
2022/04/28 09:29:29;;;;;;;4.50;2.15;;;14.80;90.70;;;;;;5069553;28;20166;-67
2022/04/28 09:31:55;;;;;;;5.95;2.03;;;15.00;90.40;;;;;;5068617;28;20044;-66
2022/04/28 09:34:22;;;;;;;2.65;2.17;;;15.40;89.20;;;;;;5067001;28;20036;-66
2022/04/28 09:36:49;;;;;;;5.30;2.80;;;15.60;87.10;;;;;;5068305;28;20047;-66
2022/04/28 09:44:53;;;;;;;5.32;2.42;;;15.80;83.70;;;;;;5050071;28;20509;-66
2022/04/28 09:47:20;;;;;;;3.88;2.40;;;15.70;85.40;;;;;;5049819;28;20040;-66
2022/04/28 09:49:53;;;;;;;4.80;2.30;;;15.80;88.00;;;;;;5050045;28;20033;-66
2022/04/28 09:52:19;;;;;;;3.65;2.35;;;15.60;86.70;;;;;;5050018;28;20082;-66
2022/04/28 09:54:47;;;;;;;4.10;1.95;;;15.70;86.70;;;;;;5049780;28;20029;-66
2022/04/28 09:57:13;;;;;;;6.20;2.53;;;15.60;85.80;;;;;;5049735;28;20470;-66
2022/04/28 09:59:40;;;;;;;4.88;2.30;;;15.60;86.30;;;;;;5049975;28;20033;-66
2022/04/28 10:02:12;;;;;;;3.58;2.30;;;15.40;86.50;;;;;;5050281;28;20024;-66
2022/04/28 10:04:41;;;;;;;5.00;2.53;;;15.40;87.50;;;;;;5048608;28;20036;-66
2022/04/28 10:07:07;;;;;;;7.18;2.80;;;15.30;88.90;;;;;;5049942;28;20070;-67
2022/04/28 10:09:34;;;;;;;4.13;2.33;;;15.40;87.80;;;;;;5050013;28;20067;-66
2022/04/28 10:12:00;;;;;;;4.88;2.50;;;15.70;86.00;;;;;;5047464;28;20040;-66
2022/04/28 10:14:26;;;;;;;4.38;2.22;;;15.80;86.10;;;;;;5046890;28;20025;-67
2022/04/28 10:16:52;;;;;;;3.25;2.30;;;16.00;85.00;;;;;;5046807;28;20474;-67
2022/04/28 10:19:22;;;;;;;4.60;2.35;;;16.10;83.30;;;;;;5048665;28;20044;-67
2022/04/28 10:21:59;;;;;;;4.72;2.58;;;16.30;83.70;;;;;;5050033;28;20062;-67
2022/04/28 10:33:04;;;;;;;5.72;2.92;;;16.30;84.70;;;;;;5038560;28;20033;-67
2022/04/28 10:35:39;;;;;;;3.38;2.20;;;16.60;81.80;;;;;;5049785;28;20139;-66
2022/04/28 10:38:23;;;;;;;3.15;2.05;;;17.10;79.30;;;;;;5049225;28;20132;-65
2022/04/28 10:41:03;;;;;;;3.40;2.50;;;17.90;75.20;;;;;;5048180;28;20600;-66
2022/04/28 10:43:31;;;;;;;5.35;2.40;;;19.00;72.30;;;;;;5049603;28;20033;-65
2022/04/28 10:46:24;;;;;;;3.20;2.05;;;20.10;66.90;;;;;;5049187;28;20040;-66
2022/04/28 10:48:55;;;;;;;6.20;2.58;;;20.90;60.40;;;;;;5041428;28;20041;-65
2022/04/28 10:51:22;;;;;;;2.95;1.98;;;21.50;56.30;;;;;;5045376;28;20032;-65
2022/04/28 10:54:07;;;;;;;2.55;1.90;;;22.20;53.80;;;;;;5049557;28;20562;-66
2022/04/28 10:56:42;;;;;;;4.15;2.10;;;22.80;50.70;;;;;;5049596;28;20033;-66
2022/04/28 10:59:34;;;;;;;5.90;2.75;;;23.80;42.10;;;;;;5045606;28;20021;-66
2022/04/28 11:02:11;;;;;;;5.13;2.38;;;23.10;41.90;;;;;;5047970;28;20183;-66
2022/04/28 11:04:39;;;;;;;3.45;2.55;;;23.00;42.80;;;;;;5050221;28;20117;-65
2022/04/28 11:07:15;;;;;;;3.90;2.35;;;23.30;41.20;;;;;;5051284;28;20021;-65
2022/04/28 11:09:43;;;;;;;5.15;3.30;;;22.70;41.40;;;;;;5049807;28;20025;-67
2022/04/28 11:12:18;;;;;;;4.13;3.15;;;22.90;40.60;;;;;;5049755;28;20060;-68
2022/04/28 11:14:49;;;;;;;4.20;2.22;;;22.80;40.40;;;;;;5049831;28;20070;-66
2022/04/28 11:17:17;;;;;;;5.22;2.95;;;23.20;41.20;;;;;;5050071;28;20029;-66
2022/04/28 11:19:46;;;;;;;4.40;2.58;;;23.10;37.80;;;;;;5049850;28;20025;-67
2022/04/28 11:22:11;;;;;;;3.22;2.25;;;23.30;37.50;;;;;;5049632;28;20051;-67
2022/04/28 11:24:45;;;;;;;3.15;2.13;;;23.10;37.50;;;;;;5049461;28;20343;-67
2022/04/28 11:27:17;;;;;;;3.35;2.72;;;22.70;40.10;;;;;;5049275;28;20048;-67
2022/04/28 11:29:43;;;;;;;6.40;3.03;;;21.60;43.00;;;;;;5049629;28;20036;-67
2022/04/28 11:32:09;;;;;;;5.55;3.38;;;20.90;45.80;;;;;;5049301;28;20041;-68
2022/04/28 11:34:35;;;;;;;4.38;2.80;;;20.00;47.10;;;;;;5049511;28;20094;-67
2022/04/28 11:37:24;;;;;;;5.97;2.92;;;19.30;52.30;;;;;;5049407;28;20052;-68
2022/04/28 11:39:56;;;;;;;5.38;3.10;;;18.90;54.80;;;;;;5049307;28;20515;-68
2022/04/28 11:42:25;;;;;;;3.88;2.70;;;18.20;57.10;;;;;;5049348;28;20055;-65
2022/04/28 11:44:56;;;;;;;5.18;2.90;;;17.80;57.60;;;;;;5049904;28;20039;-65
2022/04/28 11:47:24;;;;;;;6.22;2.90;;;17.70;61.70;;;;;;5049763;28;20100;-70
2022/04/28 11:49:57;;;;;;;5.47;3.35;;;17.80;61.60;;;;;;5049093;28;20235;-68
2022/04/28 11:52:25;;;;;;;4.72;2.72;;;17.90;59.20;;;;;;5048909;28;20021;-68
2022/04/28 11:54:57;;;;;;;5.10;2.80;;;17.90;58.00;;;;;;5049065;28;20053;-68
2022/04/28 11:57:22;;;;;;;7.80;3.20;;;18.70;58.70;;;;;;5049121;28;20100;-68
2022/04/28 11:59:49;;;;;;;4.57;2.60;;;19.20;55.90;;;;;;5049024;28;20125;-68
2022/04/28 12:02:29;;;;;;;6.15;2.95;;;20.20;51.40;;;;;;5049093;28;20032;-70
2022/04/28 12:04:59;;;;;;;6.60;3.65;;;21.10;48.10;;;;;;5049098;28;20029;-66
2022/04/28 12:07:30;;;;;;;3.75;2.38;;;22.00;45.20;;;;;;5049415;28;20060;-66
2022/04/28 12:15:26;;;;;;;4.47;3.10;;;20.70;44.20;;;;;;5049019;28;20569;-66
2022/04/28 12:20:51;;;;;;;5.45;3.10;;;20.30;44.40;;;;;;5049085;28;20186;-66
2022/04/28 12:23:31;;;;;;;10.65;3.38;;;19.80;47.50;;;;;;5048423;28;20020;-66
2022/04/28 12:26:01;;;;;;;5.72;3.40;;;19.60;48.30;;;;;;5049708;28;20497;-66
2022/04/28 12:28:34;;;;;;;;;;;19.60;49.90;;;;;;5049106;28;20029;-67
2022/04/28 12:31:02;;;;;;;4.43;2.78;;;19.50;49.30;;;;;;5048606;28;19916;-67
2022/04/28 12:33:37;;;;;;;4.82;3.38;;;19.00;50.40;;;;;;5048620;28;20059;-66
2022/04/28 12:36:05;;;;;;;4.97;2.67;;;19.10;51.40;;;;;;5048504;28;20037;-66
2022/04/28 12:38:34;;;;;;;4.10;3.17;;;18.90;53.00;;;;;;5048426;28;20053;-66
2022/04/28 12:41:19;;;;;;;4.35;3.15;;;18.80;51.60;;;;;;5047885;28;20036;-66
2022/04/28 12:43:50;;;;;;;5.18;2.90;;;18.60;54.10;;;;;;5048632;28;20033;-66
2022/04/28 12:46:38;;;;;;;4.38;2.80;;;18.50;54.30;;;;;;5048286;28;20024;-65
2022/04/28 12:49:10;;;;;;;5.57;3.25;;;18.20;53.90;;;;;;5048470;28;20029;-66
2022/04/28 12:51:51;;;;;;;4.90;2.42;;;18.00;56.30;;;;;;5048044;28;20047;-66
2022/04/28 12:54:19;;;;;;;7.40;2.53;;;17.80;58.10;;;;;;5047402;28;20021;-65
2022/04/28 12:56:54;;;;;;;5.35;3.25;;;17.50;58.60;;;;;;5044287;28;20037;-64
2022/04/28 12:59:27;;;;;;;5.82;3.33;;;17.60;60.80;;;;;;5028446;28;20100;-64
2022/04/28 13:01:53;;;;;;;5.50;2.80;;;17.90;60.10;;;;;;5028533;28;20029;-65
2022/04/28 13:04:22;;;;;;;4.85;3.53;;;18.10;58.00;;;;;;5027939;28;20686;-64
2022/04/28 13:06:49;;;;;;;4.93;2.78;;;17.90;59.00;;;;;;5028127;28;20017;-66
2022/04/28 13:09:16;;;;;;;5.35;3.08;;;18.20;59.10;;;;;;5027719;28;20029;-64
2022/04/28 13:11:44;;;;;;;6.30;2.90;;;18.20;57.80;;;;;;5027576;28;20056;-66
2022/04/28 13:14:13;;;;;;;4.35;3.03;;;18.40;56.80;;;;;;5027997;28;20029;-66
2022/04/28 13:16:39;;;;;;;6.60;3.35;;;18.50;57.70;;;;;;5027906;28;20490;-66
2022/04/28 13:19:06;;;;;;;7.20;3.85;;;18.40;57.50;;;;;;5027915;28;20022;-68
2022/04/28 13:21:32;;;;;;;4.18;2.67;;;18.70;56.80;;;;;;5026762;28;20018;-66
2022/04/28 13:23:59;;;;;;;3.92;2.70;;;18.90;54.40;;;;;;5027409;28;20472;-65
2022/04/28 13:26:27;;;;;;;5.22;3.08;;;18.90;55.40;;;;;;5043908;28;20033;-65
2022/04/28 13:28:53;;;;;;;5.90;3.63;;;18.90;55.30;;;;;;5046270;28;20036;-65
2022/04/28 13:31:20;;;;;;;4.78;2.85;;;18.60;54.40;;;;;;5047343;28;20033;-68
2022/04/28 13:33:47;;;;;;;4.05;2.88;;;18.50;57.50;;;;;;5047340;28;20029;-66
2022/04/28 13:36:13;;;;;;;6.82;3.40;;;18.20;56.10;;;;;;5047350;28;20033;-66